Time;durP1;ratioP1;P1;durP2;ratioP2;P2;SDS_P1;SDS_P2;PMS_P1;PMS_P2;Temp;Humidity;BMP_temperature;BMP_pressure;BME280_temperature;BME280_humidity;BME280_pressure;Samples;Min_cycle;Max_cycle;Signal;HPM_P1;HPM_P2
2023/09/15 00:01:33;;;;;;;1.85;1.60;;;14.20;99.90;;;;;;4946432;29;20201;-58
2023/09/15 00:04:03;;;;;;;3.72;1.67;;;14.10;99.90;;;;;;4952257;29;20255;-57
2023/09/15 00:06:31;;;;;;;3.67;1.75;;;14.10;99.90;;;;;;4950631;29;20221;-58
2023/09/15 00:08:59;;;;;;;2.78;1.80;;;14.10;99.90;;;;;;4949033;29;20296;-58
2023/09/15 00:11:39;;;;;;;1.77;1.42;;;14.10;99.90;;;;;;4946534;29;20654;-58
2023/09/15 00:14:10;;;;;;;3.95;1.60;;;14.00;99.90;;;;;;4940442;29;20396;-58
2023/09/15 00:16:40;;;;;;;5.35;1.50;;;14.00;99.90;;;;;;4940086;29;20675;-58
2023/09/15 00:19:13;;;;;;;4.65;1.88;;;14.00;99.90;;;;;;4942477;29;20221;-58
2023/09/15 00:21:41;;;;;;;9.68;1.90;;;13.90;99.90;;;;;;4947977;29;20209;-58
2023/09/15 00:24:09;;;;;;;7.97;1.77;;;13.90;99.90;;;;;;4950805;29;20316;-57
2023/09/15 00:26:37;;;;;;;4.88;1.67;;;13.90;99.90;;;;;;4944213;29;20300;-58
2023/09/15 00:29:05;;;;;;;3.53;1.75;;;13.80;99.90;;;;;;4949558;29;20296;-58
2023/09/15 00:31:35;;;;;;;4.20;1.40;;;13.80;99.90;;;;;;4953500;29;20679;-58
2023/09/15 00:34:03;;;;;;;2.47;1.70;;;13.80;99.90;;;;;;4949621;29;20236;-58
2023/09/15 00:36:32;;;;;;;4.55;1.80;;;13.80;99.90;;;;;;4950252;29;20586;-58
2023/09/15 00:39:01;;;;;;;2.80;1.60;;;13.70;99.90;;;;;;4945437;29;20237;-58
2023/09/15 00:41:29;;;;;;;3.20;1.60;;;13.70;99.90;;;;;;4944203;29;20691;-58
2023/09/15 00:43:57;;;;;;;2.50;1.80;;;13.60;99.90;;;;;;4952251;29;20309;-58
2023/09/15 00:46:24;;;;;;;4.93;2.00;;;13.60;99.90;;;;;;4942443;29;20279;-58
2023/09/15 00:48:55;;;;;;;4.70;1.63;;;13.60;99.90;;;;;;4948854;28;20544;-58
2023/09/15 00:51:23;;;;;;;2.58;1.60;;;13.60;99.90;;;;;;4944665;29;20202;-58
2023/09/15 00:53:51;;;;;;;2.95;1.38;;;13.50;99.90;;;;;;4943994;29;20308;-58
2023/09/15 00:56:19;;;;;;;5.75;1.58;;;13.50;99.90;;;;;;4942411;29;20248;-58
2023/09/15 00:58:47;;;;;;;2.38;1.45;;;13.50;99.90;;;;;;4943625;29;20241;-57
2023/09/15 01:01:16;;;;;;;5.28;1.40;;;13.50;99.90;;;;;;4951522;29;20739;-58
2023/09/15 01:03:45;;;;;;;3.22;1.75;;;13.50;99.90;;;;;;4948780;28;20225;-58
2023/09/15 01:06:14;;;;;;;3.33;1.55;;;13.40;99.90;;;;;;4947685;29;20642;-57
2023/09/15 01:08:42;;;;;;;4.68;1.80;;;13.40;99.90;;;;;;4944999;28;20322;-58
2023/09/15 01:11:10;;;;;;;7.78;1.70;;;13.30;99.90;;;;;;4944728;29;20206;-58
2023/09/15 01:13:38;;;;;;;1.67;1.58;;;13.30;99.90;;;;;;4948371;29;20660;-57
2023/09/15 01:16:09;;;;;;;3.92;1.55;;;13.30;99.90;;;;;;4947072;29;20289;-58
2023/09/15 01:18:42;;;;;;;3.28;1.45;;;13.20;99.90;;;;;;4944636;29;20205;-58
2023/09/15 01:21:43;;;;;;;2.83;1.40;;;13.20;99.90;;;;;;4949754;28;20589;-58
2023/09/15 01:24:30;;;;;;;3.40;1.83;;;13.20;99.90;;;;;;4931110;29;20281;-58
2023/09/15 01:27:21;;;;;;;6.22;1.67;;;13.20;99.90;;;;;;4946275;29;20272;-58
2023/09/15 01:29:51;;;;;;;5.47;1.70;;;13.10;99.90;;;;;;4945500;29;20253;-58
2023/09/15 01:32:19;;;;;;;7.03;2.30;;;13.10;99.90;;;;;;4944493;29;20261;-58
2023/09/15 01:34:48;;;;;;;4.80;1.98;;;13.10;99.90;;;;;;4947819;28;20213;-58
2023/09/15 01:37:16;;;;;;;2.22;2.03;;;13.10;99.90;;;;;;4945009;29;20593;-58
2023/09/15 01:39:44;;;;;;;4.50;1.67;;;13.00;99.90;;;;;;4941071;29;20206;-57
2023/09/15 01:42:12;;;;;;;4.93;1.98;;;13.00;99.90;;;;;;4947132;28;20205;-59
2023/09/15 01:44:40;;;;;;;4.78;2.38;;;13.00;99.90;;;;;;4949295;28;20214;-59
2023/09/15 01:47:10;;;;;;;1.83;1.67;;;13.00;99.90;;;;;;4948324;29;20312;-59
2023/09/15 01:49:38;;;;;;;2.85;1.88;;;13.00;99.90;;;;;;4943447;29;20296;-58
2023/09/15 01:52:06;;;;;;;4.82;1.67;;;13.00;99.90;;;;;;4945654;29;20241;-59
2023/09/15 01:54:35;;;;;;;6.53;2.15;;;12.90;99.90;;;;;;4951098;29;20205;-62
2023/09/15 01:57:04;;;;;;;3.03;1.58;;;12.90;99.90;;;;;;4953533;29;20241;-59
2023/09/15 01:59:31;;;;;;;3.38;2.05;;;12.90;99.90;;;;;;4951636;28;20301;-59
2023/09/15 02:01:59;;;;;;;5.20;1.83;;;12.90;99.90;;;;;;4951654;29;20264;-59
2023/09/15 02:04:29;;;;;;;1.85;1.55;;;12.90;99.90;;;;;;4951388;29;20216;-58
2023/09/15 02:06:57;;;;;;;3.03;2.03;;;12.90;99.90;;;;;;4949024;29;20234;-59
2023/09/15 02:09:25;;;;;;;5.25;2.30;;;12.90;99.90;;;;;;4951488;29;20216;-59
2023/09/15 02:11:53;;;;;;;4.53;2.10;;;12.80;99.90;;;;;;4953821;29;20210;-59
2023/09/15 02:14:21;;;;;;;4.35;1.90;;;12.80;99.90;;;;;;4950921;28;20288;-59
2023/09/15 02:16:51;;;;;;;4.95;1.88;;;12.80;99.90;;;;;;4948688;29;20536;-59
2023/09/15 02:19:19;;;;;;;5.03;2.05;;;12.80;99.90;;;;;;4951006;29;20212;-59
2023/09/15 02:21:49;;;;;;;2.75;1.90;;;12.80;99.90;;;;;;4951518;29;20205;-59
2023/09/15 02:24:17;;;;;;;3.30;1.40;;;12.80;99.90;;;;;;4950102;28;20596;-58
2023/09/15 02:26:45;;;;;;;2.75;1.73;;;12.70;99.90;;;;;;4949779;29;20312;-58
2023/09/15 02:29:13;;;;;;;2.72;1.65;;;12.70;99.90;;;;;;4949152;29;20261;-59
2023/09/15 02:31:40;;;;;;;2.38;1.48;;;12.70;99.90;;;;;;4943683;29;20252;-58
2023/09/15 02:34:08;;;;;;;5.95;1.85;;;12.70;99.90;;;;;;4939780;28;20234;-59
2023/09/15 02:36:36;;;;;;;4.15;1.90;;;12.70;99.90;;;;;;4948919;29;20887;-58
2023/09/15 02:39:06;;;;;;;2.67;1.92;;;12.70;99.90;;;;;;4949966;28;20206;-59
2023/09/15 02:41:35;;;;;;;3.67;1.73;;;12.70;99.90;;;;;;4949236;28;20216;-59
2023/09/15 02:44:03;;;;;;;7.05;2.00;;;12.70;99.90;;;;;;4944126;29;20237;-59
2023/09/15 02:46:30;;;;;;;3.38;1.90;;;12.70;99.90;;;;;;4944522;29;20237;-59
2023/09/15 02:49:00;;;;;;;3.88;2.03;;;12.70;99.90;;;;;;4949213;29;20279;-59
2023/09/15 02:51:27;;;;;;;5.00;2.33;;;12.70;99.90;;;;;;4950412;29;20897;-59
2023/09/15 02:53:55;;;;;;;4.65;2.15;;;12.70;99.90;;;;;;4941153;28;20693;-59
2023/09/15 02:56:25;;;;;;;3.40;2.00;;;12.70;99.90;;;;;;4951004;29;20296;-58
2023/09/15 02:58:52;;;;;;;3.20;2.00;;;12.70;99.90;;;;;;4947649;29;20307;-59
2023/09/15 03:01:21;;;;;;;4.18;1.83;;;12.70;99.90;;;;;;4951386;29;20297;-58
2023/09/15 03:03:49;;;;;;;3.33;2.15;;;12.60;99.90;;;;;;4949879;28;20232;-59
2023/09/15 03:06:18;;;;;;;3.13;2.00;;;12.60;99.90;;;;;;4941986;29;20752;-59
2023/09/15 03:08:46;;;;;;;5.78;2.20;;;12.70;99.90;;;;;;4950534;29;20225;-59
2023/09/15 03:11:16;;;;;;;3.85;1.80;;;12.70;99.90;;;;;;4951459;29;20209;-59
2023/09/15 03:13:46;;;;;;;5.57;2.03;;;12.60;99.90;;;;;;4951719;28;20232;-59
2023/09/15 03:16:14;;;;;;;4.95;2.03;;;12.60;99.90;;;;;;4943682;29;20209;-59
2023/09/15 03:18:46;;;;;;;1.83;1.50;;;12.60;99.90;;;;;;4947312;29;20202;-59
2023/09/15 03:21:15;;;;;;;3.42;1.90;;;12.60;99.90;;;;;;4949706;29;20268;-58
2023/09/15 03:23:42;;;;;;;4.55;2.20;;;12.60;99.90;;;;;;4949628;29;20260;-59
2023/09/15 03:26:10;;;;;;;3.13;2.15;;;12.60;99.90;;;;;;4947031;29;20211;-59
2023/09/15 03:28:39;;;;;;;3.00;1.90;;;12.60;99.90;;;;;;4941528;29;20222;-58
2023/09/15 03:31:09;;;;;;;2.95;1.80;;;12.60;99.90;;;;;;4949008;29;20213;-59
2023/09/15 03:33:37;;;;;;;2.67;2.13;;;12.60;99.90;;;;;;4949271;29;20221;-59
2023/09/15 03:36:06;;;;;;;4.03;2.03;;;12.60;99.90;;;;;;4949239;29;21094;-59
2023/09/15 03:38:34;;;;;;;3.20;2.17;;;12.60;99.90;;;;;;4948471;28;20582;-59
2023/09/15 03:41:02;;;;;;;3.25;2.03;;;12.60;99.90;;;;;;4947476;29;20292;-59
2023/09/15 03:43:30;;;;;;;6.35;1.77;;;12.60;99.90;;;;;;4950580;28;20236;-59
2023/09/15 03:45:59;;;;;;;2.22;2.03;;;12.60;99.90;;;;;;4942705;29;20288;-59
2023/09/15 03:48:29;;;;;;;2.83;1.98;;;12.60;99.90;;;;;;4941723;28;20240;-59
2023/09/15 03:50:57;;;;;;;5.25;2.05;;;12.60;99.90;;;;;;4947645;29;20280;-59
2023/09/15 03:53:25;;;;;;;8.02;2.53;;;12.60;99.90;;;;;;4943634;29;20782;-59
2023/09/15 03:55:53;;;;;;;5.75;2.28;;;12.50;99.90;;;;;;4946374;29;20209;-59
2023/09/15 03:58:21;;;;;;;2.35;2.15;;;12.50;99.90;;;;;;4945314;29;20201;-59
2023/09/15 04:00:49;;;;;;;2.38;1.73;;;12.50;99.90;;;;;;4945841;29;20240;-59
2023/09/15 04:03:17;;;;;;;6.38;1.95;;;12.50;99.90;;;;;;4944463;28;20233;-59
2023/09/15 04:05:46;;;;;;;6.53;2.90;;;12.50;99.90;;;;;;4948678;28;20691;-59
2023/09/15 04:08:14;;;;;;;6.18;2.35;;;12.50;99.90;;;;;;4949562;29;20300;-59
2023/09/15 04:10:42;;;;;;;1.98;1.77;;;12.50;99.90;;;;;;4948802;29;20244;-59
2023/09/15 04:13:10;;;;;;;4.22;2.30;;;12.50;99.90;;;;;;4965240;23;20255;-72
2023/09/15 04:15:39;;;;;;;6.13;2.40;;;12.50;99.90;;;;;;4990557;28;20219;-72
2023/09/15 04:18:08;;;;;;;2.78;2.15;;;12.50;99.90;;;;;;4993321;28;20231;-73
2023/09/15 04:20:37;;;;;;;3.60;2.40;;;12.50;99.90;;;;;;4985797;28;20232;-72
2023/09/15 04:23:14;;;;;;;6.38;2.15;;;12.40;99.90;;;;;;4985176;28;20204;-72
2023/09/15 04:25:42;;;;;;;4.35;1.95;;;12.40;99.90;;;;;;4985213;28;20228;-71
2023/09/15 04:28:10;;;;;;;2.20;2.00;;;12.40;99.90;;;;;;4986931;28;20212;-72
2023/09/15 04:30:38;;;;;;;8.00;2.00;;;12.40;99.90;;;;;;4986409;28;20212;-72
2023/09/15 04:33:06;;;;;;;4.50;2.00;;;12.40;99.90;;;;;;4984887;28;20232;-72
2023/09/15 04:35:34;;;;;;;4.78;2.40;;;12.40;99.90;;;;;;4987490;28;20274;-72
2023/09/15 04:38:02;;;;;;;3.65;2.13;;;12.30;99.90;;;;;;4984807;28;20661;-72
2023/09/15 04:40:32;;;;;;;4.93;2.17;;;12.30;99.90;;;;;;4991738;28;20220;-72
2023/09/15 04:43:00;;;;;;;3.75;2.28;;;12.30;99.90;;;;;;4981570;28;20208;-73
2023/09/15 04:45:28;;;;;;;4.88;2.38;;;12.30;99.90;;;;;;4989142;28;20212;-73
2023/09/15 04:47:56;;;;;;;6.22;2.65;;;12.30;99.90;;;;;;4996567;28;20267;-73
2023/09/15 04:50:24;;;;;;;7.68;2.35;;;12.30;99.90;;;;;;4985302;28;20224;-72
2023/09/15 04:52:52;;;;;;;5.95;3.10;;;12.30;99.90;;;;;;4992971;28;20644;-73
2023/09/15 04:55:20;;;;;;;7.10;2.42;;;12.40;99.90;;;;;;4997902;28;20696;-73
2023/09/15 04:57:49;;;;;;;6.07;2.58;;;12.30;99.90;;;;;;4992632;28;20302;-72
2023/09/15 05:00:23;;;;;;;3.92;2.45;;;12.40;99.90;;;;;;4988771;28;20601;-72
2023/09/15 05:02:51;;;;;;;4.10;2.45;;;12.40;99.90;;;;;;4992907;28;20294;-73
2023/09/15 05:05:19;;;;;;;3.78;2.47;;;12.40;99.90;;;;;;4998123;28;20211;-73
2023/09/15 05:07:47;;;;;;;5.10;2.47;;;12.30;99.90;;;;;;4992896;28;20209;-73
2023/09/15 05:10:15;;;;;;;3.67;2.45;;;12.30;99.90;;;;;;4986610;28;20287;-73
2023/09/15 05:12:43;;;;;;;7.60;2.42;;;12.30;99.90;;;;;;4985212;28;20209;-73
2023/09/15 05:15:13;;;;;;;4.72;2.30;;;12.30;99.90;;;;;;4989053;28;20295;-74
2023/09/15 05:17:41;;;;;;;6.50;2.50;;;12.30;99.90;;;;;;4996269;28;20219;-73
2023/09/15 05:20:09;;;;;;;7.38;2.97;;;12.30;99.90;;;;;;4987027;28;20319;-72
2023/09/15 05:22:37;;;;;;;5.00;2.40;;;12.30;99.90;;;;;;4988305;28;20300;-74
2023/09/15 05:25:07;;;;;;;5.00;2.55;;;12.30;99.90;;;;;;4988439;28;20230;-74
2023/09/15 05:27:35;;;;;;;3.35;2.80;;;12.30;99.90;;;;;;4995865;28;20214;-74
2023/09/15 05:30:04;;;;;;;3.97;2.17;;;12.30;99.90;;;;;;4997398;28;20694;-72
2023/09/15 05:32:33;;;;;;;5.55;2.45;;;12.30;99.90;;;;;;4990092;28;20560;-73
2023/09/15 05:35:02;;;;;;;6.18;2.92;;;12.30;99.90;;;;;;4989416;28;20208;-72
2023/09/15 05:37:30;;;;;;;7.28;2.83;;;12.20;99.90;;;;;;4993593;28;20200;-77
2023/09/15 05:39:58;;;;;;;4.68;2.60;;;12.20;99.90;;;;;;4994416;28;20615;-73
2023/09/15 05:42:26;;;;;;;5.65;2.70;;;12.20;99.90;;;;;;4985949;28;20496;-75
2023/09/15 05:44:54;;;;;;;4.82;2.75;;;12.30;99.90;;;;;;4992869;28;20232;-72
2023/09/15 05:47:22;;;;;;;7.80;2.72;;;12.30;99.90;;;;;;4986304;28;20243;-74
2023/09/15 05:49:51;;;;;;;5.22;2.78;;;12.30;99.90;;;;;;4996629;28;20254;-75
2023/09/15 05:52:19;;;;;;;5.15;2.42;;;12.30;99.90;;;;;;4993705;28;20302;-72
2023/09/15 05:54:47;;;;;;;5.43;2.25;;;12.40;99.90;;;;;;5000181;28;20204;-72
2023/09/15 05:57:15;;;;;;;6.60;2.70;;;12.40;99.90;;;;;;4994989;28;20242;-72
2023/09/15 05:59:43;;;;;;;7.88;3.00;;;12.40;99.90;;;;;;4997684;28;20224;-72
2023/09/15 06:02:11;;;;;;;2.92;2.63;;;12.40;99.90;;;;;;4995737;28;20236;-72
2023/09/15 06:04:39;;;;;;;6.95;3.03;;;12.50;99.90;;;;;;4991380;28;20254;-73
2023/09/15 06:07:09;;;;;;;3.63;3.10;;;12.60;99.90;;;;;;4993832;28;20298;-72
2023/09/15 06:09:37;;;;;;;4.35;2.67;;;12.60;99.90;;;;;;4992366;28;20246;-72
2023/09/15 06:12:05;;;;;;;8.68;3.35;;;12.70;99.90;;;;;;4996427;28;20232;-72
2023/09/15 06:14:35;;;;;;;6.63;3.75;;;12.70;99.90;;;;;;4992845;28;20212;-73
2023/09/15 06:17:04;;;;;;;3.67;3.35;;;12.80;99.90;;;;;;4985858;28;20200;-74
2023/09/15 06:19:32;;;;;;;7.45;4.00;;;12.90;99.90;;;;;;4996044;28;20283;-74
2023/09/15 06:22:02;;;;;;;5.78;3.42;;;12.90;99.90;;;;;;4996901;28;20219;-72
2023/09/15 06:24:31;;;;;;;7.47;3.75;;;13.00;99.90;;;;;;4989121;28;20282;-72
2023/09/15 06:26:59;;;;;;;8.95;3.88;;;13.10;99.90;;;;;;4989711;28;20265;-73
2023/09/15 06:29:27;;;;;;;5.57;3.60;;;13.20;99.90;;;;;;5008589;23;20252;-58
2023/09/15 06:31:55;;;;;;;5.82;3.72;;;13.20;99.90;;;;;;4972712;28;20208;-58
2023/09/15 06:34:23;;;;;;;6.63;3.58;;;13.40;99.90;;;;;;4972812;28;20662;-59
2023/09/15 06:36:51;;;;;;;6.05;4.05;;;13.40;99.90;;;;;;4973646;28;20708;-58
2023/09/15 06:39:23;;;;;;;7.35;3.85;;;13.50;99.90;;;;;;4972993;28;20243;-59
2023/09/15 06:41:53;;;;;;;6.95;3.55;;;13.60;99.90;;;;;;4973085;28;20243;-59
2023/09/15 06:44:21;;;;;;;7.40;3.70;;;13.70;99.90;;;;;;4972850;28;20240;-59
2023/09/15 06:46:49;;;;;;;5.05;4.18;;;13.80;99.90;;;;;;4973018;28;20209;-59
2023/09/15 06:49:21;;;;;;;8.73;3.78;;;13.90;99.90;;;;;;4972998;28;20261;-60
2023/09/15 06:51:49;;;;;;;5.55;4.05;;;13.90;99.90;;;;;;4973134;28;20642;-58
2023/09/15 06:54:17;;;;;;;4.82;3.55;;;14.00;99.90;;;;;;4972827;28;20335;-58
2023/09/15 06:56:45;;;;;;;11.38;4.68;;;14.20;99.90;;;;;;4973021;28;20869;-58
2023/09/15 06:59:14;;;;;;;7.85;4.13;;;14.30;99.90;;;;;;4973058;28;20291;-59
2023/09/15 07:01:42;;;;;;;5.50;4.40;;;14.40;99.90;;;;;;4969134;28;20233;-59
2023/09/15 07:04:12;;;;;;;8.57;4.60;;;14.50;99.90;;;;;;4972854;28;20248;-60
2023/09/15 07:06:41;;;;;;;7.82;4.75;;;14.60;99.90;;;;;;4972770;28;20733;-59
2023/09/15 07:09:09;;;;;;;9.60;4.82;;;14.70;99.90;;;;;;4972078;28;20208;-60
2023/09/15 07:11:37;;;;;;;9.48;5.10;;;14.80;99.90;;;;;;4965673;28;20318;-59
2023/09/15 07:14:05;;;;;;;6.45;4.85;;;14.90;99.90;;;;;;4972481;28;20259;-57
2023/09/15 07:16:34;;;;;;;4.93;4.32;;;14.90;99.90;;;;;;4972493;28;20287;-59
2023/09/15 07:19:02;;;;;;;8.90;4.72;;;15.00;99.90;;;;;;4972522;28;20294;-58
2023/09/15 07:21:30;;;;;;;9.95;5.13;;;15.10;99.90;;;;;;4972472;28;20221;-59
2023/09/15 07:23:59;;;;;;;6.47;4.40;;;15.30;99.90;;;;;;4972448;28;20267;-60
2023/09/15 07:26:28;;;;;;;8.38;4.90;;;15.40;99.90;;;;;;4972212;28;20205;-59
2023/09/15 07:28:56;;;;;;;6.63;4.47;;;15.50;99.90;;;;;;4967881;28;20221;-60
2023/09/15 07:31:24;;;;;;;6.15;4.30;;;15.60;99.90;;;;;;4972374;28;20674;-59
2023/09/15 07:33:53;;;;;;;7.40;4.68;;;15.70;99.90;;;;;;4971957;28;20232;-60
2023/09/15 07:36:22;;;;;;;6.78;4.80;;;15.80;99.90;;;;;;4972137;28;20211;-60
2023/09/15 07:38:50;;;;;;;6.40;4.40;;;15.90;99.90;;;;;;4972556;28;20279;-59
2023/09/15 07:41:17;;;;;;;6.15;4.25;;;15.90;99.90;;;;;;4972745;28;20201;-60
2023/09/15 07:43:46;;;;;;;6.72;4.93;;;16.00;99.90;;;;;;4972164;28;20283;-59
2023/09/15 07:46:14;;;;;;;6.47;4.97;;;16.10;99.90;;;;;;4969091;28;20787;-60
2023/09/15 07:48:43;;;;;;;5.93;5.07;;;16.20;99.90;;;;;;4971694;28;20709;-58
2023/09/15 07:51:13;;;;;;;7.60;4.93;;;16.30;99.90;;;;;;4972333;28;20267;-60
2023/09/15 07:53:41;;;;;;;5.38;4.80;;;16.40;99.90;;;;;;4972085;28;20224;-60
2023/09/15 07:56:09;;;;;;;5.50;5.00;;;16.50;99.90;;;;;;4969183;28;20219;-60
2023/09/15 07:58:37;;;;;;;5.80;5.28;;;16.60;99.90;;;;;;4971054;28;20208;-59
2023/09/15 08:01:07;;;;;;;5.63;4.45;;;16.70;99.90;;;;;;4970442;28;20232;-59
2023/09/15 08:03:35;;;;;;;4.88;4.38;;;16.80;99.90;;;;;;4964767;28;20287;-58
2023/09/15 08:06:03;;;;;;;5.18;4.72;;;16.90;99.90;;;;;;4971182;28;20307;-58
2023/09/15 08:08:32;;;;;;;6.50;4.68;;;17.00;99.90;;;;;;4964014;28;20240;-58
2023/09/15 08:11:00;;;;;;;8.50;4.70;;;17.10;99.90;;;;;;4968228;28;20717;-60
2023/09/15 08:13:28;;;;;;;5.05;4.50;;;17.20;99.90;;;;;;4955815;28;20237;-60
2023/09/15 08:15:56;;;;;;;5.32;4.75;;;17.20;99.90;;;;;;4966495;28;20214;-60
2023/09/15 08:18:24;;;;;;;10.02;5.22;;;17.30;99.90;;;;;;4962281;28;20223;-60
2023/09/15 08:20:52;;;;;;;5.15;4.63;;;17.40;99.90;;;;;;4967491;28;20211;-59
2023/09/15 08:23:20;;;;;;;8.00;4.72;;;17.50;99.90;;;;;;4975531;28;20287;-60
2023/09/15 08:25:50;;;;;;;5.05;4.60;;;17.70;99.90;;;;;;4972706;28;20297;-59
2023/09/15 08:28:18;;;;;;;9.07;4.88;;;17.70;99.90;;;;;;4970711;28;20271;-58
2023/09/15 08:30:49;;;;;;;6.93;4.93;;;17.80;99.90;;;;;;4970156;28;20328;-58
2023/09/15 08:33:17;;;;;;;7.15;5.03;;;17.90;99.90;;;;;;4965224;28;20314;-60
2023/09/15 08:35:45;;;;;;;8.18;4.50;;;18.00;99.90;;;;;;4974889;28;20204;-60
2023/09/15 08:38:13;;;;;;;5.10;4.47;;;18.20;99.90;;;;;;4974922;28;20212;-60
2023/09/15 08:40:47;;;;;;;5.47;4.45;;;18.30;99.90;;;;;;4975024;28;20211;-61
2023/09/15 08:43:17;;;;;;;6.55;4.78;;;18.30;99.90;;;;;;4974767;28;20224;-60
2023/09/15 08:45:45;;;;;;;5.22;4.65;;;18.40;99.90;;;;;;4974821;28;20204;-60
2023/09/15 08:48:14;;;;;;;6.38;4.60;;;18.40;99.90;;;;;;4974396;28;20697;-60
2023/09/15 08:50:42;;;;;;;5.90;4.63;;;18.50;99.90;;;;;;4974943;28;20208;-61
2023/09/15 08:53:10;;;;;;;5.07;4.63;;;18.70;99.90;;;;;;4974768;28;20310;-60
2023/09/15 08:55:38;;;;;;;6.25;4.75;;;18.80;99.90;;;;;;4963443;28;20741;-60
2023/09/15 08:58:06;;;;;;;5.63;5.10;;;18.90;99.90;;;;;;4970785;28;20690;-59
2023/09/15 09:00:35;;;;;;;7.22;5.45;;;19.00;99.90;;;;;;4974757;28;20207;-61
2023/09/15 09:03:04;;;;;;;7.60;4.55;;;19.20;99.90;;;;;;4974682;28;20310;-60
2023/09/15 09:05:32;;;;;;;8.55;4.72;;;19.40;99.90;;;;;;4974574;28;20705;-60
2023/09/15 09:08:01;;;;;;;6.03;4.80;;;19.40;99.90;;;;;;4974729;28;20268;-61
2023/09/15 09:10:29;;;;;;;6.55;4.80;;;19.50;99.90;;;;;;4974499;28;20736;-59
2023/09/15 09:12:56;;;;;;;4.57;4.28;;;19.70;99.90;;;;;;4969343;28;20232;-59
2023/09/15 09:15:24;;;;;;;7.03;5.07;;;19.90;99.90;;;;;;4974534;28;20215;-62
2023/09/15 09:17:53;;;;;;;8.55;4.38;;;20.10;99.90;;;;;;4974318;28;20231;-60
2023/09/15 09:20:25;;;;;;;4.70;4.07;;;20.30;99.90;;;;;;4974086;28;20212;-60
2023/09/15 09:22:53;;;;;;;4.65;4.22;;;20.40;99.90;;;;;;4974558;28;20200;-60
2023/09/15 09:25:27;;;;;;;4.82;4.38;;;20.60;99.90;;;;;;4973298;28;20240;-61
2023/09/15 09:27:55;;;;;;;4.00;3.70;;;20.70;99.90;;;;;;4974031;28;20245;-59
2023/09/15 09:30:26;;;;;;;5.53;4.28;;;20.90;99.90;;;;;;4973870;28;20219;-60
2023/09/15 09:32:55;;;;;;;6.32;4.15;;;21.10;99.90;;;;;;4974245;28;20294;-60
2023/09/15 09:35:23;;;;;;;5.40;4.05;;;21.30;99.90;;;;;;4973987;28;20200;-60
2023/09/15 09:37:52;;;;;;;4.30;3.90;;;21.50;99.90;;;;;;4973369;28;20212;-60
2023/09/15 09:40:21;;;;;;;5.38;3.80;;;21.70;99.90;;;;;;4973619;28;20243;-61
2023/09/15 09:42:49;;;;;;;4.57;4.18;;;21.80;99.90;;;;;;4974009;28;20236;-61
2023/09/15 09:45:17;;;;;;;4.90;4.40;;;22.00;99.90;;;;;;4973422;28;20230;-60
2023/09/15 09:47:45;;;;;;;4.57;3.80;;;22.20;99.90;;;;;;4973593;28;20781;-61
2023/09/15 09:50:18;;;;;;;4.60;4.15;;;22.40;99.90;;;;;;4973636;28;20232;-61
2023/09/15 09:52:46;;;;;;;5.72;4.43;;;22.60;99.90;;;;;;4973723;28;20312;-60
2023/09/15 09:55:14;;;;;;;4.60;4.20;;;22.90;99.90;;;;;;4973417;28;20673;-60
2023/09/15 09:57:42;;;;;;;4.07;3.70;;;23.30;99.90;;;;;;4973372;28;20235;-61
2023/09/15 10:00:10;;;;;;;4.32;4.00;;;23.40;99.90;;;;;;4973732;28;20246;-60
2023/09/15 10:02:40;;;;;;;5.43;3.90;;;23.70;99.90;;;;;;4973624;28;20593;-62
2023/09/15 10:05:08;;;;;;;6.13;3.90;;;23.60;99.90;;;;;;4973468;28;20210;-60
2023/09/15 10:07:38;;;;;;;4.28;3.88;;;23.80;99.90;;;;;;4973264;28;20622;-61
2023/09/15 10:10:07;;;;;;;4.28;3.85;;;24.10;99.90;;;;;;4973172;28;20262;-60
2023/09/15 10:12:35;;;;;;;3.88;3.58;;;24.50;99.90;;;;;;4973336;28;20228;-60
2023/09/15 10:15:04;;;;;;;4.25;3.80;;;24.80;99.90;;;;;;4973518;28;20247;-59
2023/09/15 10:17:33;;;;;;;4.00;3.67;;;25.10;99.90;;;;;;4971083;28;20674;-59
2023/09/15 10:20:01;;;;;;;6.68;3.42;;;25.40;99.90;;;;;;4973087;28;20294;-59
2023/09/15 10:22:29;;;;;;;4.47;3.70;;;25.70;99.90;;;;;;4973180;28;20200;-59
2023/09/15 10:25:00;;;;;;;4.30;3.65;;;26.00;99.90;;;;;;4972872;28;20685;-59
2023/09/15 10:27:28;;;;;;;3.97;3.70;;;26.10;99.90;;;;;;4965161;28;20263;-59
2023/09/15 10:30:02;;;;;;;4.22;3.40;;;26.40;99.90;;;;;;4971065;28;20223;-59
2023/09/15 10:32:35;;;;;;;4.15;3.58;;;26.70;99.90;;;;;;4973023;28;20227;-59
2023/09/15 10:35:04;;;;;;;3.63;3.40;;;26.90;99.90;;;;;;4970974;28;20285;-59
2023/09/15 10:37:32;;;;;;;3.28;3.08;;;27.10;99.90;;;;;;4972457;28;20295;-59
2023/09/15 10:40:01;;;;;;;3.90;3.67;;;27.40;99.90;;;;;;4972582;28;20639;-59
2023/09/15 10:42:29;;;;;;;3.75;3.47;;;27.50;99.90;;;;;;4973036;28;20204;-60
2023/09/15 10:44:57;;;;;;;8.45;4.05;;;27.30;99.90;;;;;;4966811;28;20224;-60
2023/09/15 10:47:25;;;;;;;3.10;2.90;;;27.30;99.90;;;;;;4972530;28;20204;-60
2023/09/15 10:49:53;;;;;;;4.22;3.47;;;27.40;99.90;;;;;;4972734;28;20219;-60
2023/09/15 10:52:32;;;;;;;3.70;3.40;;;27.80;99.90;;;;;;4972595;28;20647;-60
2023/09/15 10:55:01;;;;;;;3.30;3.00;;;28.00;99.90;;;;;;4967103;28;20208;-59
2023/09/15 10:57:29;;;;;;;4.53;3.15;;;28.30;99.90;;;;;;4972446;28;20239;-60
2023/09/15 10:59:57;;;;;;;3.25;3.05;;;28.60;99.90;;;;;;4972321;28;20208;-60
2023/09/15 11:02:26;;;;;;;6.00;3.78;;;28.80;99.90;;;;;;4972563;28;20665;-59
2023/09/15 11:04:53;;;;;;;3.58;3.28;;;29.00;99.90;;;;;;4972355;28;20223;-60
2023/09/15 11:07:21;;;;;;;4.22;3.28;;;29.30;99.90;;;;;;4972194;28;20673;-60
2023/09/15 11:09:49;;;;;;;3.70;3.40;;;29.40;99.90;;;;;;4972257;28;20650;-59
2023/09/15 11:12:18;;;;;;;3.72;3.45;;;29.50;99.90;;;;;;4972456;28;20669;-60
2023/09/15 11:14:46;;;;;;;5.72;3.67;;;29.50;99.90;;;;;;4971050;28;20232;-59
2023/09/15 11:17:18;;;;;;;3.63;3.30;;;29.20;99.90;;;;;;4972403;28;20295;-60
2023/09/15 11:19:46;;;;;;;3.95;3.10;;;28.70;99.90;;;;;;4964751;28;20199;-60
2023/09/15 11:22:13;;;;;;;4.00;3.28;;;28.80;99.90;;;;;;4972183;28;20239;-60
2023/09/15 11:24:41;;;;;;;3.63;3.30;;;29.10;99.90;;;;;;4972082;28;20251;-60
2023/09/15 11:27:09;;;;;;;3.65;3.05;;;29.50;99.90;;;;;;4972059;28;20205;-60
2023/09/15 11:29:38;;;;;;;4.82;3.15;;;29.80;99.90;;;;;;4971909;28;20214;-60
2023/09/15 11:32:08;;;;;;;4.72;3.83;;;30.10;99.90;;;;;;4972059;28;20212;-59
2023/09/15 11:34:36;;;;;;;4.20;3.13;;;30.20;99.90;;;;;;4971701;28;20664;-60
2023/09/15 11:37:04;;;;;;;3.35;3.05;;;30.40;99.90;;;;;;4972086;28;20208;-60
2023/09/15 11:39:32;;;;;;;3.33;3.13;;;30.40;99.90;;;;;;4971843;28;20653;-60
2023/09/15 11:42:01;;;;;;;2.88;2.67;;;30.20;99.90;;;;;;4972006;28;20227;-60
2023/09/15 11:44:30;;;;;;;4.10;2.67;;;30.30;99.90;;;;;;4972117;28;20227;-60
2023/09/15 11:47:00;;;;;;;2.65;2.50;;;30.40;99.90;;;;;;4965848;28;20215;-60
2023/09/15 11:49:28;;;;;;;3.15;3.00;;;30.80;99.90;;;;;;4975306;28;20211;-60
2023/09/15 11:51:56;;;;;;;3.75;3.05;;;31.00;99.90;;;;;;4975980;28;20208;-60
2023/09/15 11:54:24;;;;;;;3.53;2.85;;;31.20;99.90;;;;;;4975470;28;20256;-60
2023/09/15 11:56:52;;;;;;;2.58;2.40;;;31.50;99.90;;;;;;4975907;28;20307;-60
2023/09/15 11:59:21;;;;;;;2.20;2.10;;;31.30;99.90;;;;;;4975537;28;20720;-60
2023/09/15 12:01:49;;;;;;;3.53;2.67;;;31.40;99.90;;;;;;4975853;28;20251;-60
2023/09/15 12:04:18;;;;;;;4.32;2.45;;;31.50;99.90;;;;;;4975529;28;20223;-60
2023/09/15 12:06:46;;;;;;;2.15;2.05;;;31.90;99.60;;;;;;4975326;28;20208;-60
2023/09/15 12:09:15;;;;;;;2.72;2.53;;;31.90;99.00;;;;;;4975785;28;20235;-60
2023/09/15 12:11:44;;;;;;;3.15;2.83;;;31.50;99.10;;;;;;4975843;28;20234;-60
2023/09/15 12:14:13;;;;;;;2.45;2.35;;;31.70;98.90;;;;;;4975464;28;20624;-60
2023/09/15 12:16:44;;;;;;;2.85;2.28;;;31.90;98.40;;;;;;4975305;28;20212;-60
2023/09/15 12:19:12;;;;;;;3.15;2.67;;;32.10;97.50;;;;;;4975222;28;20212;-60
2023/09/15 12:21:52;;;;;;;2.20;2.20;;;32.20;96.70;;;;;;4975172;28;20310;-60
2023/09/15 12:24:21;;;;;;;5.00;2.33;;;32.40;96.70;;;;;;4975154;28;20228;-59
2023/09/15 12:26:50;;;;;;;2.42;2.22;;;32.40;96.20;;;;;;4974639;28;20211;-60
2023/09/15 12:29:18;;;;;;;2.50;2.30;;;32.50;95.80;;;;;;4974772;28;20208;-60
2023/09/15 12:31:47;;;;;;;3.47;2.33;;;32.50;95.70;;;;;;4975194;28;20212;-60
2023/09/15 12:34:19;;;;;;;2.33;2.13;;;32.60;95.00;;;;;;4975074;28;20319;-60
2023/09/15 12:36:48;;;;;;;2.42;2.22;;;32.60;93.80;;;;;;4974390;28;20211;-59
2023/09/15 12:39:18;;;;;;;2.55;2.40;;;32.60;95.30;;;;;;4975062;28;20582;-60
2023/09/15 12:41:46;;;;;;;2.10;2.00;;;32.80;94.60;;;;;;4975136;28;20236;-60
2023/09/15 12:44:25;;;;;;;2.30;2.20;;;32.90;93.50;;;;;;4974286;28;20275;-60
2023/09/15 12:46:53;;;;;;;2.03;2.03;;;32.90;92.60;;;;;;4973903;28;20286;-59
2023/09/15 12:49:21;;;;;;;2.35;2.22;;;32.90;91.40;;;;;;4974757;28;20241;-60
2023/09/15 12:51:49;;;;;;;2.25;2.15;;;32.40;92.00;;;;;;4967096;28;20239;-60
2023/09/15 12:54:18;;;;;;;3.60;2.10;;;32.40;93.00;;;;;;4974415;28;20255;-60
2023/09/15 12:56:52;;;;;;;3.75;2.30;;;32.70;92.60;;;;;;4974456;28;20204;-60